Time;durP1;ratioP1;P1;durP2;ratioP2;P2;SDS_P1;SDS_P2;PMS_P1;PMS_P2;Temp;Humidity;BMP_temperature;BMP_pressure;BME280_temperature;BME280_humidity;BME280_pressure;Samples;Min_cycle;Max_cycle;Signal;HPM_P1;HPM_P2
2022/04/25 00:05:03;;;;;;;29.40;20.70;;;;;;;6.79;86.87;97343.11;220064;1274;302147;-73
2022/04/25 00:10:06;;;;;;;31.90;20.30;;;;;;;6.72;86.53;97336.38;220408;1274;25410;-72
2022/04/25 00:15:32;;;;;;;31.10;21.10;;;;;;;6.66;86.74;97332.84;220295;1275;25342;-73
2022/04/25 00:20:35;;;;;;;28.80;20.20;;;;;;;6.58;86.50;97339.55;220523;1273;25257;-73
2022/04/25 00:25:41;;;;;;;30.00;20.90;;;;;;;6.50;86.41;97335.71;220299;1274;22662;-72
2022/04/25 00:30:50;;;;;;;29.30;20.30;;;;;;;6.43;86.46;97335.41;220330;1274;24075;-73
2022/04/25 00:36:21;;;;;;;32.80;20.90;;;;;;;6.38;86.59;97337.48;220339;1274;24264;-73
2022/04/25 00:41:44;;;;;;;29.80;19.70;;;;;;;6.31;86.88;97350.11;220280;1274;24208;-73
2022/04/25 00:46:49;;;;;;;28.20;18.00;;;;;;;6.25;87.18;97347.97;220256;1274;22601;-73
2022/04/25 00:51:54;;;;;;;27.20;19.10;;;;;;;6.22;87.13;97341.51;220560;1276;23297;-71
2022/04/25 00:57:08;;;;;;;27.10;18.10;;;;;;;6.18;87.09;97339.25;220276;1276;22546;-72
2022/04/25 01:02:11;;;;;;;29.90;19.50;;;;;;;6.12;87.20;97335.14;220348;1274;24540;-73
2022/04/25 01:07:14;;;;;;;29.70;19.90;;;;;;;6.07;87.05;97334.77;220285;1276;22580;-72
2022/04/25 01:12:16;;;;;;;28.80;19.30;;;;;;;6.00;87.17;97342.43;220508;1274;22560;-73
2022/04/25 01:17:21;;;;;;;31.40;20.20;;;;;;;5.92;87.14;97351.00;220340;1275;22576;-73
2022/04/25 01:22:39;;;;;;;29.60;19.80;;;;;;;5.85;86.92;97349.70;220261;1276;22535;-73
2022/04/25 01:27:57;;;;;;;27.40;19.30;;;;;;;5.80;87.33;97346.99;220305;1274;22496;-73
2022/04/25 01:33:10;;;;;;;31.90;19.90;;;;;;;5.79;87.72;97347.11;220220;1274;22539;-73
2022/04/25 01:38:12;;;;;;;29.50;20.30;;;;;;;5.77;87.71;97343.38;220215;1274;24376;-72
2022/04/25 01:43:27;;;;;;;32.00;21.10;;;;;;;5.76;87.93;97344.34;220348;1274;24231;-73
2022/04/25 01:48:47;;;;;;;33.70;22.00;;;;;;;5.79;88.10;97341.75;220226;1277;24257;-72
2022/04/25 01:53:52;;;;;;;27.20;19.10;;;;;;;5.79;87.93;97340.73;220299;1274;25377;-73
2022/04/25 01:58:58;;;;;;;29.10;20.60;;;;;;;5.73;87.67;97343.23;220283;1276;22629;-74
2022/04/25 02:04:00;;;;;;;29.20;20.10;;;;;;;5.69;87.56;97350.89;220296;1274;25478;-73
2022/04/25 02:09:11;;;;;;;30.60;20.70;;;;;;;5.64;87.71;97349.44;220308;1274;25336;-72
2022/04/25 02:14:53;;;;;;;29.70;20.10;;;;;;;5.65;87.99;97348.41;220620;1274;22624;-72
2022/04/25 02:20:19;;;;;;;;;;;;;;;;;;;;;
2022/04/25 02:25:32;;;;;;;30.20;20.80;;;;;;;5.61;87.91;97347.42;220744;1274;22487;-72
2022/04/25 02:30:35;;;;;;;29.00;20.00;;;;;;;5.58;87.82;97339.80;220645;1274;22774;-73
2022/04/25 02:35:37;;;;;;;29.60;20.90;;;;;;;5.54;87.92;97340.09;220664;1274;22562;-72
2022/04/25 02:40:42;;;;;;;29.90;20.40;;;;;;;5.48;87.86;97350.11;220359;1275;26397;-72
2022/04/25 02:45:45;;;;;;;33.00;21.70;;;;;;;5.42;87.94;97354.30;220192;1276;22548;-72
2022/04/25 02:50:50;;;;;;;31.50;21.10;;;;;;;5.36;87.69;97353.12;220264;1276;22626;-72
2022/04/25 02:56:22;;;;;;;29.80;20.20;;;;;;;5.29;87.73;97352.03;219500;1274;23475;-72
2022/04/25 03:01:47;;;;;;;35.20;21.80;;;;;;;5.22;87.85;97353.42;220722;1273;24311;-72
2022/04/25 03:06:58;;;;;;;29.30;19.80;;;;;;;5.15;87.75;97357.92;220864;1274;22786;-71
2022/04/25 03:12:04;;;;;;;31.10;21.50;;;;;;;5.10;87.73;97359.23;220868;1273;22749;-73
2022/04/25 03:17:06;;;;;;;31.90;21.60;;;;;;;5.05;87.82;97358.44;220735;1273;22620;-73
2022/04/25 03:22:12;;;;;;;32.50;21.60;;;;;;;5.00;87.78;97360.58;220577;1273;25367;-73
2022/04/25 03:27:15;;;;;;;31.20;20.00;;;;;;;4.92;87.66;97369.01;220596;1274;24386;-73
2022/04/25 03:32:24;;;;;;;32.00;22.30;;;;;;;4.85;87.54;97373.13;220339;1274;22770;-73
2022/04/25 03:37:55;;;;;;;30.40;20.60;;;;;;;4.79;87.73;97376.60;220281;1276;22712;-73
2022/04/25 03:43:17;;;;;;;28.50;19.20;;;;;;;4.75;87.81;97380.80;220434;1274;22534;-72
2022/04/25 03:48:27;;;;;;;31.70;22.20;;;;;;;4.71;87.78;97387.30;220454;1275;22795;-72
2022/04/25 03:53:32;;;;;;;37.70;24.90;;;;;;;4.69;87.74;97392.81;220324;1274;22567;-74
2022/04/25 03:58:36;;;;;;;40.80;26.20;;;;;;;4.71;87.98;97390.81;220287;1275;24231;-73
2022/04/25 04:03:39;;;;;;;38.20;25.40;;;;;;;4.73;88.10;97394.41;220399;1275;22616;-73
2022/04/25 04:09:50;;;;;;;41.70;27.20;;;;;;;4.70;87.95;97393.33;220366;1276;22700;-72
2022/04/25 04:14:41;;;;;;;46.30;29.50;;;;;;;4.69;88.25;97391.33;220350;1276;22563;-72
2022/04/25 04:19:46;;;;;;;43.40;28.00;;;;;;;4.70;88.21;97394.13;220424;1274;25976;-73
2022/04/25 04:24:49;;;;;;;44.60;28.00;;;;;;;4.71;88.47;97395.80;220364;1274;22641;-73
2022/04/25 04:30:07;;;;;;;43.30;29.30;;;;;;;4.75;88.55;97399.04;220657;1273;23578;-72
2022/04/25 04:40:58;;;;;;;51.30;31.80;;;;;;;4.95;89.00;97421.53;220512;1273;22563;-72
2022/04/25 04:46:17;;;;;;;50.10;33.10;;;;;;;5.14;89.58;97425.21;220503;1273;22534;-72
2022/04/25 04:51:44;;;;;;;53.40;35.00;;;;;;;5.36;89.64;97424.65;220754;1274;23137;-73
2022/04/25 04:57:07;;;;;;;57.30;37.70;;;;;;;5.51;89.41;97430.71;220532;1274;22686;-73
2022/04/25 05:02:29;;;;;;;52.00;34.30;;;;;;;5.73;89.98;97432.09;220733;1274;22621;-73
2022/04/25 05:07:41;;;;;;;54.10;35.90;;;;;;;6.00;90.16;97440.56;220644;1275;22702;-73
2022/04/25 05:12:59;;;;;;;53.10;32.40;;;;;;;6.24;89.75;97440.38;220945;1274;22568;-72
2022/04/25 05:18:01;;;;;;;43.20;31.20;;;;;;;6.44;89.45;97441.10;220557;1274;23015;-73
2022/04/25 05:23:10;;;;;;;45.20;31.20;;;;;;;6.59;89.29;97437.76;220558;1274;22538;-73
2022/04/25 05:28:12;;;;;;;46.20;31.60;;;;;;;6.77;89.21;97430.39;220439;1276;22561;-73
2022/04/25 05:33:23;;;;;;;42.50;29.50;;;;;;;6.97;88.97;97433.23;220397;1276;24266;-74
2022/04/25 05:38:26;;;;;;;38.60;29.00;;;;;;;7.29;89.80;97440.64;220735;1273;22649;-72
2022/04/25 05:43:33;;;;;;;41.70;30.40;;;;;;;7.69;90.15;97444.65;221076;1274;22865;-73
2022/04/25 05:54:00;;;;;;;33.10;25.90;;;;;;;8.65;90.01;97449.39;220922;1274;23546;-74
2022/04/25 05:59:12;;;;;;;39.20;29.10;;;;;;;9.18;90.13;97457.23;221173;1275;22854;-73
2022/04/25 06:04:23;;;;;;;34.70;25.40;;;;;;;9.85;89.97;97469.90;221129;1276;22576;-74
2022/04/25 06:09:34;;;;;;;29.00;23.10;;;;;;;10.44;88.61;97473.39;220905;1274;24322;-72
2022/04/25 06:14:40;;;;;;;23.10;16.80;;;;;;;10.86;86.73;97475.08;221106;1273;24365;-73
2022/04/25 06:19:44;;;;;;;20.90;14.90;;;;;;;10.98;85.30;97480.84;221325;1274;24232;-73
2022/04/25 06:24:49;;;;;;;20.10;14.20;;;;;;;11.06;84.76;97485.14;221023;1274;26271;-74
2022/04/25 06:29:52;;;;;;;15.10;11.50;;;;;;;11.05;83.72;97485.47;221135;1274;24258;-72
2022/04/25 06:35:17;;;;;;;15.10;11.30;;;;;;;11.01;83.29;97487.54;221081;1275;22579;-73
2022/04/25 06:40:23;;;;;;;11.60;9.00;;;;;;;11.12;83.37;97489.35;221083;1274;22810;-72
2022/04/25 06:45:26;;;;;;;13.70;10.20;;;;;;;11.26;82.79;97485.96;221337;1274;24808;-74
2022/04/25 06:50:31;;;;;;;12.20;10.30;;;;;;;11.44;82.36;97487.13;220900;1274;24361;-72
2022/04/25 06:55:38;;;;;;;12.50;11.10;;;;;;;11.56;81.72;97487.95;220820;1274;22556;-73
2022/04/25 07:00:42;;;;;;;14.90;12.00;;;;;;;11.69;81.27;97485.50;220769;1275;22666;-73
2022/04/25 07:05:44;;;;;;;17.10;13.70;;;;;;;11.76;80.72;97482.11;220805;1277;22597;-73
2022/04/25 07:11:10;;;;;;;17.70;14.30;;;;;;;11.82;80.25;97489.22;220694;1274;22599;-73
2022/04/25 07:16:13;;;;;;;18.90;14.90;;;;;;;11.81;79.77;97493.69;220985;1274;22609;-74
2022/04/25 07:31:59;;;;;;;23.00;16.70;;;;;;;11.84;79.39;97492.01;221001;1274;24259;-74
2022/04/25 07:37:04;;;;;;;23.40;17.00;;;;;;;11.95;79.29;97498.58;221529;1274;25476;-73
2022/04/25 07:42:09;;;;;;;19.30;15.80;;;;;;;12.03;78.64;97502.79;221702;1274;22564;-74
2022/04/25 07:47:11;;;;;;;20.30;14.80;;;;;;;12.06;78.47;97507.88;220695;1274;22797;-74
2022/04/25 07:52:17;;;;;;;21.90;15.90;;;;;;;12.05;78.13;97513.81;221203;1273;22566;-73
2022/04/25 07:57:21;;;;;;;19.20;13.70;;;;;;;12.04;78.23;97523.15;220900;1274;24785;-74
2022/04/25 08:02:26;;;;;;;17.30;13.80;;;;;;;12.23;78.94;97528.73;221147;1274;22547;-75
2022/04/25 08:07:31;;;;;;;21.90;15.70;;;;;;;12.37;77.77;97526.06;221026;1274;23933;-73
2022/04/25 08:18:14;;;;;;;20.60;16.20;;;;;;;12.31;77.24;97536.76;220678;1274;22574;-71
2022/04/25 08:23:18;;;;;;;22.10;15.70;;;;;;;12.22;76.58;97546.93;220821;1274;22557;-73
2022/04/25 08:28:22;;;;;;;17.50;14.40;;;;;;;12.04;76.47;97553.05;220986;1274;23916;-74
2022/04/25 08:33:48;;;;;;;19.90;15.30;;;;;;;11.90;77.00;97556.88;220853;1275;22672;-72
2022/04/25 08:39:01;;;;;;;18.20;15.20;;;;;;;11.95;77.48;97556.40;221005;1274;23805;-72
2022/04/25 08:44:12;;;;;;;20.10;14.80;;;;;;;11.89;77.21;97557.98;221106;1273;23839;-73
2022/04/25 08:49:24;;;;;;;18.10;14.80;;;;;;;11.87;77.41;97563.52;220993;1274;25446;-73
2022/04/25 08:54:29;;;;;;;17.00;12.80;;;;;;;11.99;77.66;97563.44;221068;1274;22658;-73
2022/04/25 08:59:33;;;;;;;16.60;13.60;;;;;;;12.25;77.56;97569.84;221067;1274;25424;-73
2022/04/25 09:04:37;;;;;;;17.70;13.80;;;;;;;12.56;77.80;97570.14;221281;1274;24175;-72
2022/04/25 09:09:43;;;;;;;17.40;13.20;;;;;;;12.82;77.69;97571.35;221600;1274;22648;-74
2022/04/25 09:14:46;;;;;;;19.10;14.80;;;;;;;12.98;76.95;97571.42;221511;1274;22651;-71
2022/04/25 09:20:12;;;;;;;22.50;16.20;;;;;;;13.08;76.86;97577.84;221571;1274;24956;-70
2022/04/25 09:25:20;;;;;;;18.90;15.50;;;;;;;13.28;76.46;97581.70;219001;1274;26163;-70
2022/04/25 09:31:01;;;;;;;23.00;16.00;;;;;;;13.37;75.94;97583.63;221069;1274;23126;-71
2022/04/25 09:36:06;;;;;;;20.90;15.30;;;;;;;13.45;75.81;97588.43;221543;1274;24230;-70
2022/04/25 09:41:11;;;;;;;21.80;15.70;;;;;;;13.50;75.69;97594.34;221285;1274;25420;-71
2022/04/25 09:46:19;;;;;;;18.70;14.50;;;;;;;13.53;75.51;97596.65;221467;1274;25365;-71
2022/04/25 09:51:33;;;;;;;20.30;14.90;;;;;;;13.52;75.21;97598.24;221605;1273;22586;-71
2022/04/25 09:56:36;;;;;;;20.80;16.10;;;;;;;13.36;74.46;97609.48;221477;1274;22611;-71
2022/04/25 10:01:40;;;;;;;21.20;16.30;;;;;;;12.95;74.06;97619.61;221525;1273;22537;-72
2022/04/25 10:06:44;;;;;;;21.40;15.20;;;;;;;12.39;74.36;97622.14;221494;1274;25361;-72
2022/04/25 10:11:48;;;;;;;20.60;16.70;;;;;;;11.99;75.39;97624.66;221852;1274;22510;-71
2022/04/25 10:16:51;;;;;;;16.90;13.90;;;;;;;11.71;76.22;97627.38;221444;1274;25315;-72
2022/04/25 10:21:59;;;;;;;19.30;14.30;;;;;;;11.57;76.97;97625.39;221545;1274;22623;-72
2022/04/25 10:27:09;;;;;;;18.80;15.20;;;;;;;11.54;77.99;97625.13;221508;1273;25313;-71
2022/04/25 10:32:25;;;;;;;20.80;18.10;;;;;;;11.53;78.79;97612.13;221784;1273;22565;-72
2022/04/25 10:37:40;;;;;;;23.20;19.50;;;;;;;11.60;79.58;97620.95;221370;1273;25227;-72
2022/04/25 10:49:10;;;;;;;25.50;20.80;;;;;;;11.85;80.67;97636.86;221129;1274;23234;-72
2022/04/25 10:54:23;;;;;;;24.30;21.20;;;;;;;11.97;80.54;97639.95;221727;1274;22555;-72
2022/04/25 10:59:28;;;;;;;19.20;17.10;;;;;;;12.31;80.69;97640.34;221330;1274;22557;-73
2022/04/25 11:04:31;;;;;;;18.00;15.40;;;;;;;12.84;80.36;97638.60;221683;1274;22566;-74
2022/04/25 11:09:39;;;;;;;15.20;13.00;;;;;;;13.46;79.89;97642.69;221290;1274;23084;-73
2022/04/25 11:15:00;;;;;;;14.50;12.90;;;;;;;13.92;78.21;97650.13;221354;1273;22559;-73
2022/04/25 11:20:07;;;;;;;10.50;9.40;;;;;;;13.72;76.18;97663.20;224128;1274;22721;-73
2022/04/25 11:25:25;;;;;;;10.20;9.00;;;;;;;13.15;75.37;97668.95;221181;1274;23035;-73
2022/04/25 11:30:29;;;;;;;12.40;9.80;;;;;;;12.55;75.60;97675.80;221267;1274;22765;-72
2022/04/25 11:35:39;;;;;;;6.00;5.40;;;;;;;11.97;75.63;97692.52;221890;1273;22709;-73
2022/04/25 11:40:44;;;;;;;4.80;4.30;;;;;;;11.34;75.88;97699.92;221227;1274;22572;-73
2022/04/25 11:45:47;;;;;;;5.10;4.60;;;;;;;10.88;76.64;97704.31;221350;1274;22613;-73
2022/04/25 11:50:52;;;;;;;5.80;5.20;;;;;;;10.63;77.46;97712.57;221591;1273;22580;-72
2022/04/25 11:56:15;;;;;;;6.60;5.30;;;;;;;10.46;78.01;97719.17;221407;1274;22474;-72
2022/04/25 12:01:47;;;;;;;6.70;5.90;;;;;;;10.34;78.34;97737.38;221892;1274;25220;-72
2022/04/25 12:06:51;;;;;;;6.80;6.00;;;;;;;10.18;78.66;97745.60;221068;1274;282680;-73
2022/04/25 12:18:00;;;;;;;7.20;6.40;;;;;;;9.90;79.29;97755.39;221345;1274;22716;-72
2022/04/25 12:23:33;;;;;;;7.50;6.80;;;;;;;9.80;79.77;97753.98;221566;1273;22587;-73
2022/04/25 12:28:59;;;;;;;8.80;7.90;;;;;;;9.83;80.54;97755.31;221310;1273;22775;-72
2022/04/25 12:34:07;;;;;;;8.90;8.00;;;;;;;10.04;81.60;97751.48;221381;1273;24266;-72
2022/04/25 12:39:14;;;;;;;8.10;6.70;;;;;;;10.47;82.27;97761.49;221769;1274;22528;-73
2022/04/25 12:44:17;;;;;;;7.50;6.80;;;;;;;10.84;81.73;97767.02;221653;1274;22563;-73
2022/04/25 12:49:35;;;;;;;7.50;6.60;;;;;;;11.21;81.42;97776.77;221870;1273;22580;-72
2022/04/25 12:54:41;;;;;;;6.90;6.20;;;;;;;11.49;80.42;97777.42;221647;1274;25277;-73
2022/04/25 13:00:08;;;;;;;7.00;6.10;;;;;;;11.88;80.08;97776.09;221335;1274;23362;-73
2022/04/25 13:05:14;;;;;;;4.20;3.80;;;;;;;12.20;78.97;97779.29;221038;1274;24388;-73
2022/04/25 13:10:20;;;;;;;4.70;3.90;;;;;;;12.28;77.22;97783.46;221394;1273;22557;-73
2022/04/25 13:15:47;;;;;;;3.20;2.90;;;;;;;12.34;76.54;97787.06;221284;1274;22588;-72
2022/04/25 13:21:22;;;;;;;4.50;3.20;;;;;;;12.50;76.09;97793.65;221069;1274;22809;-73
2022/04/25 13:26:39;;;;;;;3.60;2.90;;;;;;;12.68;75.47;97799.71;221122;1274;22538;-72
2022/04/25 13:31:48;;;;;;;5.20;3.40;;;;;;;12.64;74.28;97803.71;221200;1273;23005;-72
2022/04/25 13:36:53;;;;;;;4.10;3.30;;;;;;;12.40;73.34;97811.86;221343;1274;22557;-72
2022/04/25 13:42:01;;;;;;;4.00;3.50;;;;;;;12.28;73.95;97812.52;221463;1273;23307;-73
2022/04/25 13:47:10;;;;;;;3.60;3.10;;;;;;;12.48;74.64;97809.18;221324;1273;22624;-73
2022/04/25 13:52:12;;;;;;;3.60;3.20;;;;;;;12.82;74.86;97812.32;220879;1274;22582;-73
2022/04/25 13:57:19;;;;;;;4.00;3.60;;;;;;;13.09;74.20;97814.66;221059;1273;25811;-73
2022/04/25 14:07:45;;;;;;;3.80;3.40;;;;;;;12.79;72.41;97825.25;220719;1275;23084;-74
2022/04/25 14:12:47;;;;;;;6.00;5.20;;;;;;;12.46;72.76;97826.81;220817;1273;25819;-74
2022/04/25 14:17:52;;;;;;;4.50;4.10;;;;;;;12.54;73.75;97839.00;220759;1274;24557;-73
2022/04/25 14:22:56;;;;;;;5.10;4.70;;;;;;;12.96;73.47;97842.46;220689;1274;22580;-73
2022/04/25 14:27:59;;;;;;;5.10;4.70;;;;;;;13.25;72.45;97845.52;220740;1273;22577;-73
2022/04/25 14:33:11;;;;;;;5.10;4.20;;;;;;;13.28;70.98;97858.25;220790;1274;22591;-73
2022/04/25 14:38:14;;;;;;;4.60;4.20;;;;;;;12.76;69.95;97862.88;220509;1273;22546;-74
2022/04/25 14:43:18;;;;;;;5.80;4.90;;;;;;;12.27;70.84;97872.42;221078;1273;24227;-74
2022/04/25 14:48:33;;;;;;;5.60;4.70;;;;;;;12.08;71.70;97876.48;220836;1274;22712;-73
2022/04/25 14:59:15;;;;;;;5.40;4.90;;;;;;;12.02;71.40;97887.94;220756;1273;22517;-73
2022/04/25 15:04:19;;;;;;;6.30;5.70;;;;;;;11.80;71.14;97890.91;220962;1274;22553;-74
2022/04/25 15:09:22;;;;;;;7.10;6.30;;;;;;;11.49;71.84;97899.52;220743;1274;22593;-75
2022/04/25 15:14:33;;;;;;;6.70;6.00;;;;;;;11.26;72.32;97903.96;220500;1274;25339;-73
2022/04/25 15:19:49;;;;;;;5.50;4.90;;;;;;;10.92;73.00;97913.63;220594;1274;25264;-73
2022/04/25 15:25:15;;;;;;;5.50;4.20;;;;;;;10.52;73.54;97915.50;220856;1274;22562;-73
2022/04/25 15:30:20;;;;;;;5.60;4.60;;;;;;;10.25;74.45;97915.48;220805;1274;23071;-73
2022/04/25 15:35:24;;;;;;;5.00;4.10;;;;;;;10.08;75.04;97927.61;221022;1274;22559;-74
2022/04/25 15:40:26;;;;;;;5.00;4.50;;;;;;;9.91;75.63;97932.08;221100;1274;23364;-73
2022/04/25 15:45:29;;;;;;;5.10;4.30;;;;;;;9.76;76.07;97937.64;221009;1274;22557;-73
2022/04/25 15:50:31;;;;;;;6.80;4.50;;;;;;;9.61;76.66;97942.20;220999;1274;23708;-73
2022/04/25 16:00:56;;;;;;;3.60;3.30;;;;;;;9.30;77.53;97960.39;220865;1274;25536;-74
2022/04/25 16:06:02;;;;;;;4.40;3.60;;;;;;;9.17;77.99;97967.98;220630;1275;22547;-74
2022/04/25 16:11:06;;;;;;;5.40;4.30;;;;;;;9.08;78.46;97973.83;220786;1274;24808;-74
2022/04/25 16:16:11;;;;;;;5.60;4.20;;;;;;;9.03;78.99;97971.74;221181;1273;22551;-74
2022/04/25 16:21:13;;;;;;;5.50;4.20;;;;;;;8.98;79.25;97974.17;220848;1274;22539;-74
2022/04/25 16:26:16;;;;;;;5.20;4.30;;;;;;;8.94;79.58;97976.66;220793;1274;24266;-73
2022/04/25 16:31:18;;;;;;;5.10;4.20;;;;;;;8.86;79.80;97976.17;220774;1274;22663;-74
2022/04/25 16:36:20;;;;;;;6.20;4.90;;;;;;;8.80;80.09;97986.92;220927;1274;22614;-73
2022/04/25 16:41:23;;;;;;;6.10;4.90;;;;;;;8.73;80.69;97991.65;220668;1274;25377;-74
2022/04/25 16:46:33;;;;;;;6.60;5.20;;;;;;;8.60;81.27;98003.55;221007;1274;23009;-74
2022/04/25 16:51:45;;;;;;;6.00;5.10;;;;;;;8.50;81.97;98000.52;220811;1274;26199;-73
2022/04/25 16:56:47;;;;;;;6.80;5.70;;;;;;;8.39;82.38;98004.61;220627;1274;24881;-73
2022/04/25 17:01:50;;;;;;;7.00;6.10;;;;;;;8.32;82.99;98015.15;220656;1274;22561;-74
2022/04/25 17:07:06;;;;;;;8.10;6.70;;;;;;;8.28;83.23;98020.45;220565;1276;24235;-73
2022/04/25 17:12:10;;;;;;;8.20;6.10;;;;;;;8.24;83.45;98030.11;221058;1274;24216;-74
2022/04/25 17:17:18;;;;;;;7.70;6.50;;;;;;;8.20;83.60;98032.99;220694;1273;22538;-74
2022/04/25 17:22:20;;;;;;;7.80;6.60;;;;;;;8.16;83.86;98039.68;220781;1273;25472;-74
2022/04/25 17:27:25;;;;;;;8.00;7.00;;;;;;;8.12;83.90;98044.48;220620;1273;22543;-74
2022/04/25 17:38:49;;;;;;;7.20;6.10;;;;;;;8.01;84.27;98053.66;220728;1273;25312;-73
